ROU2055 CYYT-CYYZ
Flight info
| Callsign | ROU2055 |
|---|---|
| Flight time | N/A |
| Altitude | 32000 |
| Route | TEXED DCT TAGRA DCT MIILS/N0466F340 DCT TUKIR RAGID6 |
| Aircraft | A321/M-SDE3FGHIRWY/LB1 |
Departure
| Time | 2026-05-07 20:52 |
|---|---|
| Airport | St. John's International Airport (CYYT) |
Arrival
| Time | N/A |
|---|---|
| Airport | Toronto Pearson International Airport (CYYZ) |
| Time | Latitude | Longitude | Altitude | Speed | Heading |
|---|---|---|---|---|---|
| 2026-05-07 19:32 | 47.61404 | -52.74396 | 449 ft | 0 kts | 202° |
| 2026-05-07 20:41 | 47.61405 | -52.74395 | 449 ft | 3 kts | 202° |
| 2026-05-07 20:41 | 47.61422 | -52.74385 | 449 ft | 3 kts | 202° |
| 2026-05-07 20:41 | 47.61440 | -52.74374 | 449 ft | 3 kts | 202° |
| 2026-05-07 20:42 | 47.61457 | -52.74364 | 449 ft | 3 kts | 202° |
| 2026-05-07 20:42 | 47.61475 | -52.74353 | 449 ft | 3 kts | 227° |
| 2026-05-07 20:42 | 47.61482 | -52.74338 | 449 ft | 0 kts | 269° |
| 2026-05-07 20:47 | 47.61485 | -52.74343 | 455 ft | 3 kts | 295° |
| 2026-05-07 20:47 | 47.61517 | -52.74342 | 448 ft | 5 kts | 28° |
| 2026-05-07 20:48 | 47.61549 | -52.74298 | 446 ft | 9 kts | 47° |
| 2026-05-07 20:48 | 47.61590 | -52.74229 | 433 ft | 8 kts | 49° |
| 2026-05-07 20:48 | 47.61629 | -52.74162 | 435 ft | 11 kts | 49° |
| 2026-05-07 20:48 | 47.61707 | -52.74076 | 431 ft | 14 kts | 1° |
| 2026-05-07 20:49 | 47.61781 | -52.74141 | 436 ft | 11 kts | 321° |
| 2026-05-07 20:49 | 47.61864 | -52.74247 | 424 ft | 18 kts | 319° |
| 2026-05-07 20:49 | 47.61944 | -52.74349 | 430 ft | 12 kts | 319° |
| 2026-05-07 20:49 | 47.62001 | -52.74421 | 444 ft | 14 kts | 319° |
| 2026-05-07 20:50 | 47.62099 | -52.74548 | 449 ft | 18 kts | 318° |
| 2026-05-07 20:50 | 47.62180 | -52.74655 | 452 ft | 16 kts | 319° |
| 2026-05-07 20:50 | 47.62292 | -52.74801 | 452 ft | 23 kts | 319° |
| 2026-05-07 20:50 | 47.62413 | -52.74957 | 433 ft | 23 kts | 316° |
| 2026-05-07 20:51 | 47.62506 | -52.75107 | 437 ft | 15 kts | 300° |
| 2026-05-07 20:51 | 47.62556 | -52.75185 | 435 ft | 5 kts | 19° |
| 2026-05-07 20:51 | 47.62556 | -52.75154 | 439 ft | 7 kts | 112° |
| 2026-05-07 20:51 | 47.62457 | -52.75018 | 428 ft | 45 kts | 139° |
| 2026-05-07 20:52 | 47.62027 | -52.74472 | 436 ft | 115 kts | 139° |
| 2026-05-07 20:52 | 47.61281 | -52.73493 | 517 ft | 163 kts | 142° |
| 2026-05-07 20:52 | 47.60443 | -52.72360 | 1304 ft | 163 kts | 146° |
| 2026-05-07 20:52 | 47.59606 | -52.71267 | 2192 ft | 159 kts | 148° |
| 2026-05-07 20:53 | 47.58763 | -52.70228 | 2646 ft | 161 kts | 148° |
| 2026-05-07 20:53 | 47.57764 | -52.69377 | 2767 ft | 172 kts | 169° |
| 2026-05-07 20:53 | 47.56551 | -52.69589 | 2877 ft | 191 kts | 205° |
| 2026-05-07 20:53 | 47.55637 | -52.71218 | 2994 ft | 231 kts | 243° |
| 2026-05-07 20:54 | 47.55339 | -52.73663 | 3359 ft | 255 kts | 258° |
| 2026-05-07 20:54 | 47.55323 | -52.76335 | 3903 ft | 264 kts | 263° |
| 2026-05-07 20:54 | 47.55404 | -52.79052 | 4561 ft | 264 kts | 264° |
| 2026-05-07 20:54 | 47.55497 | -52.81768 | 5255 ft | 264 kts | 264° |
| 2026-05-07 20:55 | 47.55565 | -52.84471 | 5953 ft | 263 kts | 263° |
| 2026-05-07 20:55 | 47.55606 | -52.87168 | 6687 ft | 262 kts | 262° |
| 2026-05-07 20:55 | 47.55625 | -52.89872 | 7366 ft | 263 kts | 262° |
| 2026-05-07 20:55 | 47.55630 | -52.92600 | 8012 ft | 267 kts | 262° |
| 2026-05-07 20:56 | 47.55624 | -52.95353 | 8683 ft | 270 kts | 262° |
| 2026-05-07 20:56 | 47.55614 | -52.98146 | 9357 ft | 273 kts | 262° |
| 2026-05-07 20:56 | 47.55603 | -53.00969 | 10045 ft | 275 kts | 262° |
| 2026-05-07 20:56 | 47.55586 | -53.03879 | 10291 ft | 291 kts | 262° |
| 2026-05-07 20:57 | 47.55562 | -53.06966 | 10426 ft | 309 kts | 262° |
| 2026-05-07 20:57 | 47.55538 | -53.10230 | 10561 ft | 327 kts | 263° |
| 2026-05-07 20:57 | 47.55516 | -53.13675 | 10692 ft | 343 kts | 263° |
| 2026-05-07 20:57 | 47.55495 | -53.17275 | 10870 ft | 356 kts | 264° |
| 2026-05-07 20:58 | 47.55478 | -53.20969 | 11266 ft | 361 kts | 264° |
| 2026-05-07 20:58 | 47.55464 | -53.24693 | 11738 ft | 364 kts | 264° |
| 2026-05-07 20:58 | 47.55452 | -53.28371 | 12273 ft | 365 kts | 264° |
| 2026-05-07 20:58 | 47.55436 | -53.32158 | 12772 ft | 369 kts | 264° |
| 2026-05-07 20:59 | 47.55414 | -53.35977 | 13219 ft | 373 kts | 264° |
| 2026-05-07 20:59 | 47.55388 | -53.39832 | 13697 ft | 376 kts | 264° |
| 2026-05-07 20:59 | 47.55358 | -53.43717 | 14126 ft | 379 kts | 264° |
| 2026-05-07 20:59 | 47.55324 | -53.47637 | 14558 ft | 381 kts | 264° |
| 2026-05-07 21:00 | 47.55288 | -53.51567 | 15004 ft | 383 kts | 264° |
| 2026-05-07 21:00 | 47.55253 | -53.55519 | 15452 ft | 385 kts | 264° |
| 2026-05-07 21:00 | 47.55217 | -53.59496 | 15893 ft | 387 kts | 264° |
| 2026-05-07 21:00 | 47.55182 | -53.63488 | 16337 ft | 388 kts | 264° |
| 2026-05-07 21:01 | 47.55148 | -53.67494 | 16762 ft | 390 kts | 264° |
| 2026-05-07 21:01 | 47.55113 | -53.71526 | 17173 ft | 393 kts | 264° |
| 2026-05-07 21:01 | 47.55075 | -53.75578 | 17588 ft | 394 kts | 264° |
| 2026-05-07 21:01 | 47.55032 | -53.79647 | 18004 ft | 396 kts | 264° |
| 2026-05-07 21:02 | 47.54983 | -53.83675 | 18393 ft | 398 kts | 264° |
| 2026-05-07 21:02 | 47.54933 | -53.87778 | 18728 ft | 400 kts | 264° |
| 2026-05-07 21:02 | 47.54884 | -53.91909 | 19095 ft | 401 kts | 264° |
| 2026-05-07 21:02 | 47.54836 | -53.96046 | 19445 ft | 403 kts | 264° |
| 2026-05-07 21:03 | 47.54788 | -54.00202 | 19797 ft | 404 kts | 264° |
| 2026-05-07 21:03 | 47.54738 | -54.04370 | 20147 ft | 406 kts | 264° |
| 2026-05-07 21:03 | 47.54682 | -54.08556 | 20492 ft | 407 kts | 264° |
| 2026-05-07 21:03 | 47.54622 | -54.12752 | 20842 ft | 409 kts | 264° |
| 2026-05-07 21:04 | 47.54404 | -54.16931 | 21172 ft | 406 kts | 257° |
| 2026-05-07 21:04 | 47.53934 | -54.21057 | 21502 ft | 408 kts | 257° |
| 2026-05-07 21:04 | 47.53463 | -54.25209 | 21835 ft | 409 kts | 257° |
| 2026-05-07 21:04 | 47.52994 | -54.29366 | 22157 ft | 411 kts | 257° |
| 2026-05-07 21:05 | 47.52524 | -54.33542 | 22481 ft | 412 kts | 257° |
| 2026-05-07 21:05 | 47.52049 | -54.37740 | 22790 ft | 414 kts | 256° |
| 2026-05-07 21:05 | 47.51569 | -54.41952 | 23061 ft | 417 kts | 256° |
| 2026-05-07 21:05 | 47.51081 | -54.46189 | 23358 ft | 419 kts | 256° |
| 2026-05-07 21:06 | 47.50589 | -54.50439 | 23641 ft | 420 kts | 256° |
| 2026-05-07 21:06 | 47.50262 | -54.53270 | 23808 ft | 421 kts | 256° |
| 2026-05-07 21:06 | 47.49769 | -54.57543 | 24083 ft | 422 kts | 256° |
| 2026-05-07 21:06 | 47.49271 | -54.61831 | 24337 ft | 424 kts | 256° |
| 2026-05-07 21:07 | 47.48608 | -54.67524 | 24690 ft | 425 kts | 256° |
| 2026-05-07 21:07 | 47.48105 | -54.71835 | 24955 ft | 426 kts | 256° |
| 2026-05-07 21:07 | 47.47764 | -54.74750 | 25129 ft | 426 kts | 256° |
| 2026-05-07 21:07 | 47.47258 | -54.79066 | 25403 ft | 427 kts | 256° |
| 2026-05-07 21:08 | 47.46748 | -54.83399 | 25668 ft | 428 kts | 256° |
| 2026-05-07 21:08 | 47.46243 | -54.87670 | 25932 ft | 428 kts | 256° |
| 2026-05-07 21:08 | 47.45727 | -54.92002 | 26208 ft | 428 kts | 256° |
| 2026-05-07 21:08 | 47.45211 | -54.96328 | 26573 ft | 426 kts | 256° |
| 2026-05-07 21:09 | 47.44695 | -55.00615 | 26953 ft | 424 kts | 256° |
| 2026-05-07 21:09 | 47.44183 | -55.04886 | 27387 ft | 420 kts | 256° |
| 2026-05-07 21:09 | 47.43673 | -55.09128 | 27800 ft | 417 kts | 256° |
| 2026-05-07 21:09 | 47.43166 | -55.13333 | 28178 ft | 415 kts | 256° |
| 2026-05-07 21:10 | 47.42658 | -55.17507 | 28566 ft | 412 kts | 256° |
| 2026-05-07 21:10 | 47.42150 | -55.21664 | 28915 ft | 411 kts | 256° |
| 2026-05-07 21:10 | 47.41645 | -55.25818 | 29242 ft | 409 kts | 256° |
| 2026-05-07 21:10 | 47.41143 | -55.29944 | 29555 ft | 408 kts | 256° |
| 2026-05-07 21:11 | 47.40637 | -55.34055 | 29866 ft | 407 kts | 256° |
| 2026-05-07 21:11 | 47.40132 | -55.38155 | 30143 ft | 406 kts | 256° |
| 2026-05-07 21:11 | 47.39118 | -55.46339 | 30644 ft | 404 kts | 256° |
| 2026-05-07 21:12 | 47.38611 | -55.50414 | 30890 ft | 403 kts | 256° |
| 2026-05-07 21:12 | 47.38105 | -55.54470 | 31144 ft | 402 kts | 256° |
| 2026-05-07 21:12 | 47.37597 | -55.58525 | 31398 ft | 401 kts | 256° |
| 2026-05-07 21:12 | 47.37090 | -55.62573 | 31640 ft | 400 kts | 256° |
| 2026-05-07 21:13 | 47.36585 | -55.66602 | 31772 ft | 399 kts | 256° |
| 2026-05-07 21:13 | 47.36077 | -55.70618 | 31788 ft | 398 kts | 256° |
| 2026-05-07 21:13 | 47.35055 | -55.78630 | 31787 ft | 397 kts | 256° |
| 2026-05-07 21:14 | 47.34036 | -55.86623 | 31789 ft | 396 kts | 256° |
| 2026-05-07 21:14 | 47.33021 | -55.94558 | 31792 ft | 396 kts | 256° |
| 2026-05-07 21:15 | 47.31986 | -56.02528 | 31799 ft | 396 kts | 256° |
| 2026-05-07 21:15 | 47.30949 | -56.10515 | 31810 ft | 396 kts | 256° |
| 2026-05-07 21:16 | 47.29915 | -56.18495 | 31821 ft | 396 kts | 256° |
| 2026-05-07 21:16 | 47.28879 | -56.26398 | 31793 ft | 388 kts | 255° |
| 2026-05-07 21:17 | 47.27849 | -56.34169 | 31802 ft | 386 kts | 255° |
| 2026-05-07 21:17 | 47.26817 | -56.41928 | 31807 ft | 386 kts | 255° |
| 2026-05-07 21:18 | 47.25787 | -56.49636 | 31819 ft | 386 kts | 255° |
| 2026-05-07 21:18 | 47.24743 | -56.57389 | 31826 ft | 386 kts | 255° |
| 2026-05-07 21:19 | 47.23697 | -56.65147 | 31836 ft | 386 kts | 255° |
| 2026-05-07 21:19 | 47.22642 | -56.72894 | 31849 ft | 386 kts | 255° |
| 2026-05-07 21:20 | 47.21590 | -56.80618 | 31871 ft | 384 kts | 255° |
| 2026-05-07 21:20 | 47.20550 | -56.88281 | 31816 ft | 380 kts | 254° |
| 2026-05-07 21:21 | 47.19503 | -56.95902 | 31822 ft | 380 kts | 253° |
| 2026-05-07 21:21 | 47.18443 | -57.03526 | 31833 ft | 381 kts | 253° |
| 2026-05-07 21:22 | 47.17864 | -57.11313 | 31837 ft | 389 kts | 264° |
| 2026-05-07 21:22 | 47.17973 | -57.19283 | 31849 ft | 390 kts | 264° |
| 2026-05-07 21:23 | 47.18076 | -57.27254 | 31856 ft | 390 kts | 264° |
| 2026-05-07 21:23 | 47.18163 | -57.35230 | 31865 ft | 390 kts | 263° |
| 2026-05-07 21:24 | 47.18245 | -57.43159 | 31820 ft | 390 kts | 263° |
| 2026-05-07 21:24 | 47.18314 | -57.51132 | 31817 ft | 390 kts | 263° |
| 2026-05-07 21:25 | 47.18378 | -57.59123 | 31822 ft | 391 kts | 263° |
| 2026-05-07 21:25 | 47.18446 | -57.67112 | 31826 ft | 391 kts | 263° |
| 2026-05-07 21:26 | 47.18510 | -57.75116 | 31829 ft | 391 kts | 263° |
| 2026-05-07 21:26 | 47.18563 | -57.83116 | 31835 ft | 392 kts | 263° |
| 2026-05-07 21:27 | 47.18615 | -57.91141 | 31787 ft | 392 kts | 263° |
| 2026-05-07 21:27 | 47.18655 | -57.99172 | 31781 ft | 393 kts | 263° |
| 2026-05-07 21:28 | 47.18695 | -58.07221 | 31781 ft | 394 kts | 263° |
| 2026-05-07 21:28 | 47.18726 | -58.15266 | 31789 ft | 393 kts | 263° |
| 2026-05-07 21:29 | 47.18754 | -58.23292 | 31804 ft | 392 kts | 263° |
| 2026-05-07 21:29 | 47.18776 | -58.31289 | 31823 ft | 391 kts | 263° |
| 2026-05-07 21:30 | 47.18783 | -58.39278 | 31764 ft | 390 kts | 263° |
| 2026-05-07 21:30 | 47.18788 | -58.47265 | 31753 ft | 391 kts | 263° |
| 2026-05-07 21:31 | 47.18795 | -58.55261 | 31752 ft | 391 kts | 263° |
| 2026-05-07 21:31 | 47.18797 | -58.63264 | 31752 ft | 392 kts | 263° |
| 2026-05-07 21:32 | 47.18786 | -58.71222 | 31747 ft | 392 kts | 263° |
| 2026-05-07 21:32 | 47.18773 | -58.79282 | 31750 ft | 392 kts | 263° |
| 2026-05-07 21:33 | 47.18753 | -58.87279 | 31700 ft | 395 kts | 263° |
| 2026-05-07 21:33 | 47.18735 | -58.95371 | 31696 ft | 396 kts | 263° |
| 2026-05-07 21:34 | 47.18708 | -59.03454 | 31715 ft | 394 kts | 263° |
| 2026-05-07 21:34 | 47.18670 | -59.11507 | 31712 ft | 393 kts | 263° |
| 2026-05-07 21:35 | 47.18631 | -59.19545 | 31719 ft | 393 kts | 263° |
| 2026-05-07 21:35 | 47.18581 | -59.27561 | 31714 ft | 392 kts | 263° |
| 2026-05-07 21:36 | 47.18531 | -59.35577 | 31714 ft | 392 kts | 263° |
| 2026-05-07 21:36 | 47.18474 | -59.43531 | 31712 ft | 391 kts | 263° |
| 2026-05-07 21:37 | 47.18407 | -59.51531 | 31708 ft | 391 kts | 263° |
| 2026-05-07 21:37 | 47.18338 | -59.59526 | 31710 ft | 391 kts | 263° |
| 2026-05-07 21:38 | 47.18266 | -59.67513 | 31708 ft | 391 kts | 263° |
| 2026-05-07 21:38 | 47.18190 | -59.75493 | 31718 ft | 389 kts | 263° |
| 2026-05-07 21:39 | 47.18097 | -59.83452 | 31653 ft | 389 kts | 262° |
| 2026-05-07 21:39 | 47.18000 | -59.91399 | 31647 ft | 389 kts | 263° |
| 2026-05-07 21:40 | 47.17908 | -59.99361 | 31650 ft | 390 kts | 263° |
| 2026-05-07 21:40 | 47.17808 | -60.07328 | 31661 ft | 390 kts | 262° |
| 2026-05-07 21:41 | 47.17704 | -60.15240 | 31670 ft | 390 kts | 262° |
| 2026-05-07 21:41 | 47.17599 | -60.23221 | 31676 ft | 389 kts | 262° |
| 2026-05-07 21:42 | 47.17485 | -60.31145 | 31617 ft | 386 kts | 262° |
| 2026-05-07 21:42 | 47.17359 | -60.39022 | 31618 ft | 385 kts | 262° |
| 2026-05-07 21:43 | 47.17225 | -60.46897 | 31626 ft | 385 kts | 262° |
| 2026-05-07 21:43 | 47.17092 | -60.54774 | 31632 ft | 386 kts | 262° |
| 2026-05-07 21:44 | 47.16953 | -60.62658 | 31643 ft | 386 kts | 262° |
| 2026-05-07 21:44 | 47.16808 | -60.70482 | 31656 ft | 386 kts | 262° |
| 2026-05-07 21:45 | 47.16660 | -60.78377 | 31601 ft | 387 kts | 262° |
| 2026-05-07 21:45 | 47.16506 | -60.86279 | 31599 ft | 387 kts | 262° |
| 2026-05-07 21:46 | 47.16346 | -60.94207 | 31608 ft | 388 kts | 262° |
| 2026-05-07 21:46 | 47.16180 | -61.02145 | 31618 ft | 389 kts | 261° |
| 2026-05-07 21:47 | 47.16008 | -61.10083 | 31634 ft | 389 kts | 261° |
| 2026-05-07 21:47 | 47.15827 | -61.18017 | 31646 ft | 388 kts | 261° |
| 2026-05-07 21:48 | 47.15646 | -61.25968 | 31606 ft | 389 kts | 261° |
| 2026-05-07 21:48 | 47.15459 | -61.33907 | 31616 ft | 388 kts | 261° |
| 2026-05-07 21:49 | 47.15263 | -61.41811 | 31624 ft | 386 kts | 261° |
| 2026-05-07 21:49 | 47.15060 | -61.49680 | 31630 ft | 385 kts | 261° |
| 2026-05-07 21:50 | 47.14857 | -61.57475 | 31635 ft | 384 kts | 261° |
| 2026-05-07 21:50 | 47.14646 | -61.65305 | 31638 ft | 383 kts | 261° |
| 2026-05-07 21:51 | 47.14440 | -61.72955 | 31586 ft | 383 kts | 261° |
| 2026-05-07 21:51 | 47.14221 | -61.80930 | 31578 ft | 382 kts | 261° |
| 2026-05-07 21:52 | 47.13997 | -61.88740 | 31587 ft | 383 kts | 261° |
| 2026-05-07 21:52 | 47.13768 | -61.96558 | 31592 ft | 383 kts | 261° |
| 2026-05-07 21:53 | 47.13535 | -62.04373 | 31608 ft | 383 kts | 261° |
| 2026-05-07 21:53 | 47.13290 | -62.12181 | 31638 ft | 382 kts | 261° |
| 2026-05-07 21:54 | 47.13045 | -62.19955 | 31604 ft | 380 kts | 261° |
| 2026-05-07 21:54 | 47.12803 | -62.27664 | 31589 ft | 378 kts | 261° |
| 2026-05-07 21:55 | 47.12557 | -62.35318 | 31590 ft | 378 kts | 261° |
| 2026-05-07 21:55 | 47.12299 | -62.43027 | 31600 ft | 378 kts | 261° |
| 2026-05-07 21:56 | 47.12034 | -62.50739 | 31612 ft | 378 kts | 261° |
| 2026-05-07 21:56 | 47.11813 | -62.57150 | 31620 ft | 378 kts | 261° |
| 2026-05-07 21:57 | 47.11543 | -62.64865 | 31632 ft | 378 kts | 261° |
| 2026-05-07 21:57 | 47.11263 | -62.72608 | 31590 ft | 381 kts | 261° |
| 2026-05-07 21:58 | 47.10979 | -62.80283 | 31581 ft | 381 kts | 261° |
| 2026-05-07 21:58 | 47.10687 | -62.88149 | 31599 ft | 381 kts | 261° |
| 2026-05-07 21:59 | 47.10400 | -62.95711 | 31625 ft | 379 kts | 261° |
| 2026-05-07 21:59 | 47.10099 | -63.03606 | 31643 ft | 378 kts | 261° |
| 2026-05-07 22:00 | 47.09794 | -63.11290 | 31649 ft | 377 kts | 261° |
| 2026-05-07 22:00 | 47.09482 | -63.18985 | 31586 ft | 377 kts | 261° |
| 2026-05-07 22:01 | 47.09171 | -63.26669 | 31581 ft | 378 kts | 261° |
| 2026-05-07 22:01 | 47.08855 | -63.34312 | 31581 ft | 378 kts | 261° |
| 2026-05-07 22:02 | 47.08531 | -63.42025 | 31584 ft | 379 kts | 261° |
| 2026-05-07 22:02 | 47.08206 | -63.49745 | 31593 ft | 379 kts | 261° |
| 2026-05-07 22:03 | 47.07873 | -63.57463 | 31593 ft | 379 kts | 261° |
| 2026-05-07 22:03 | 47.07530 | -63.65173 | 31596 ft | 379 kts | 261° |
| 2026-05-07 22:04 | 47.07184 | -63.72871 | 31582 ft | 378 kts | 261° |
| 2026-05-07 22:04 | 47.06834 | -63.80555 | 31586 ft | 377 kts | 261° |
| 2026-05-07 22:05 | 47.06485 | -63.88229 | 31575 ft | 377 kts | 260° |
| 2026-05-07 22:05 | 47.06126 | -63.95894 | 31577 ft | 376 kts | 260° |
| 2026-05-07 22:06 | 47.05760 | -64.03501 | 31565 ft | 376 kts | 260° |
| 2026-05-07 22:06 | 47.05391 | -64.11151 | 31566 ft | 376 kts | 260° |
| 2026-05-07 22:07 | 47.05020 | -64.18812 | 31555 ft | 376 kts | 260° |
| 2026-05-07 22:07 | 47.04648 | -64.26457 | 31556 ft | 376 kts | 260° |
| 2026-05-07 22:08 | 47.04268 | -64.34097 | 31549 ft | 376 kts | 260° |
| 2026-05-07 22:08 | 47.03875 | -64.41744 | 31561 ft | 376 kts | 260° |
| 2026-05-07 22:09 | 47.03490 | -64.49233 | 31568 ft | 375 kts | 260° |
| 2026-05-07 22:09 | 47.03088 | -64.56976 | 31579 ft | 374 kts | 260° |
| 2026-05-07 22:10 | 47.02689 | -64.64511 | 31523 ft | 372 kts | 259° |
| 2026-05-07 22:10 | 47.02278 | -64.72072 | 31522 ft | 372 kts | 259° |
| 2026-05-07 22:11 | 47.01872 | -64.79638 | 31503 ft | 372 kts | 259° |
| 2026-05-07 22:11 | 47.01460 | -64.87198 | 31504 ft | 372 kts | 259° |
| 2026-05-07 22:12 | 47.01040 | -64.94768 | 31503 ft | 372 kts | 259° |
| 2026-05-07 22:12 | 47.00616 | -65.02337 | 31516 ft | 372 kts | 259° |
| 2026-05-07 22:13 | 47.00188 | -65.09902 | 31492 ft | 373 kts | 259° |
| 2026-05-07 22:13 | 46.99752 | -65.17410 | 31478 ft | 373 kts | 259° |
| 2026-05-07 22:14 | 46.99311 | -65.24972 | 31470 ft | 372 kts | 259° |
| 2026-05-07 22:14 | 46.98874 | -65.32500 | 31480 ft | 371 kts | 259° |
| 2026-05-07 22:15 | 46.98424 | -65.40031 | 31471 ft | 370 kts | 259° |
| 2026-05-07 22:15 | 46.97970 | -65.47537 | 31475 ft | 370 kts | 259° |
| 2026-05-07 22:16 | 46.97517 | -65.55044 | 31436 ft | 370 kts | 259° |
| 2026-05-07 22:16 | 46.97056 | -65.62529 | 31420 ft | 369 kts | 259° |
| 2026-05-07 22:17 | 46.96590 | -65.70010 | 31402 ft | 369 kts | 259° |
| 2026-05-07 22:17 | 46.96123 | -65.77495 | 31407 ft | 369 kts | 259° |
| 2026-05-07 22:18 | 46.95408 | -65.88712 | 31392 ft | 369 kts | 258° |
| 2026-05-07 22:19 | 46.94923 | -65.96141 | 31396 ft | 369 kts | 258° |
| 2026-05-07 22:19 | 46.94438 | -66.03618 | 31389 ft | 369 kts | 258° |
| 2026-05-07 22:20 | 46.93963 | -66.10985 | 31377 ft | 370 kts | 258° |
| 2026-05-07 22:20 | 46.93459 | -66.18606 | 31364 ft | 370 kts | 258° |
| 2026-05-07 22:21 | 46.92947 | -66.26115 | 31368 ft | 371 kts | 258° |
| 2026-05-07 22:21 | 46.92436 | -66.33625 | 31364 ft | 371 kts | 258° |
| 2026-05-07 22:22 | 46.91929 | -66.41139 | 31367 ft | 371 kts | 258° |
| 2026-05-07 22:22 | 46.91411 | -66.48656 | 31358 ft | 371 kts | 258° |
| 2026-05-07 22:23 | 46.90877 | -66.56186 | 31332 ft | 373 kts | 258° |
| 2026-05-07 22:23 | 46.90346 | -66.63698 | 31310 ft | 374 kts | 258° |
| 2026-05-07 22:24 | 46.89809 | -66.71284 | 31320 ft | 375 kts | 258° |
| 2026-05-07 22:24 | 46.89264 | -66.78882 | 31328 ft | 375 kts | 258° |
| 2026-05-07 22:25 | 46.88721 | -66.86451 | 31351 ft | 375 kts | 258° |
| 2026-05-07 22:25 | 46.88172 | -66.94020 | 31353 ft | 374 kts | 258° |
| 2026-05-07 22:26 | 46.87611 | -67.01584 | 31301 ft | 374 kts | 258° |
| 2026-05-07 22:26 | 46.86885 | -67.09089 | 31291 ft | 372 kts | 255° |
| 2026-05-07 22:27 | 46.85897 | -67.16519 | 31293 ft | 372 kts | 254° |
| 2026-05-07 22:27 | 46.84848 | -67.23917 | 31283 ft | 372 kts | 254° |
| 2026-05-07 22:28 | 46.83832 | -67.31270 | 31290 ft | 372 kts | 254° |
| 2026-05-07 22:28 | 46.82835 | -67.38701 | 31282 ft | 372 kts | 254° |
| 2026-05-07 22:29 | 46.81841 | -67.46122 | 31271 ft | 374 kts | 255° |
| 2026-05-07 22:29 | 46.80825 | -67.53564 | 31276 ft | 373 kts | 255° |
| 2026-05-07 22:30 | 46.79810 | -67.60976 | 31283 ft | 372 kts | 255° |
| 2026-05-07 22:30 | 46.78795 | -67.68374 | 31274 ft | 371 kts | 254° |
| 2026-05-07 22:31 | 46.77776 | -67.75759 | 31274 ft | 371 kts | 254° |
| 2026-05-07 22:31 | 46.76752 | -67.83125 | 31258 ft | 370 kts | 254° |
| 2026-05-07 22:32 | 46.75721 | -67.90491 | 31274 ft | 370 kts | 254° |
| 2026-05-07 22:32 | 46.74692 | -67.97819 | 31227 ft | 373 kts | 255° |
| 2026-05-07 22:33 | 46.73645 | -68.05249 | 31216 ft | 374 kts | 254° |
| 2026-05-07 22:33 | 46.72588 | -68.12674 | 31199 ft | 375 kts | 254° |
| 2026-05-07 22:34 | 46.71527 | -68.20113 | 31197 ft | 375 kts | 254° |
| 2026-05-07 22:34 | 46.70470 | -68.27554 | 31187 ft | 375 kts | 254° |
| 2026-05-07 22:35 | 46.69402 | -68.34991 | 31190 ft | 375 kts | 254° |
| 2026-05-07 22:35 | 46.68320 | -68.42428 | 31178 ft | 375 kts | 254° |
| 2026-05-07 22:36 | 46.67238 | -68.49871 | 31144 ft | 377 kts | 254° |
| 2026-05-07 22:36 | 46.66157 | -68.57282 | 31113 ft | 378 kts | 254° |
| 2026-05-07 22:37 | 46.65055 | -68.64791 | 31120 ft | 379 kts | 254° |
| 2026-05-07 22:37 | 46.63950 | -68.72305 | 31116 ft | 380 kts | 254° |
| 2026-05-07 22:38 | 46.62840 | -68.79806 | 31148 ft | 379 kts | 254° |
| 2026-05-07 22:38 | 46.61725 | -68.87290 | 31155 ft | 378 kts | 254° |
| 2026-05-07 22:39 | 46.60615 | -68.94745 | 31165 ft | 377 kts | 254° |
| 2026-05-07 22:39 | 46.59497 | -69.02198 | 31155 ft | 377 kts | 254° |
| 2026-05-07 22:40 | 46.58371 | -69.09639 | 31167 ft | 377 kts | 254° |
| 2026-05-07 22:40 | 46.57238 | -69.17081 | 31161 ft | 377 kts | 254° |
| 2026-05-07 22:41 | 46.56104 | -69.24512 | 31168 ft | 377 kts | 254° |
| 2026-05-07 22:41 | 46.54960 | -69.31941 | 31165 ft | 377 kts | 254° |
| 2026-05-07 22:42 | 46.53818 | -69.39368 | 31183 ft | 377 kts | 254° |
| 2026-05-07 22:42 | 46.52685 | -69.46742 | 31154 ft | 377 kts | 254° |
| 2026-05-07 22:43 | 46.51533 | -69.54200 | 31146 ft | 378 kts | 254° |
| 2026-05-07 22:43 | 46.50368 | -69.61655 | 31139 ft | 379 kts | 254° |
| 2026-05-07 22:44 | 46.49197 | -69.69108 | 31144 ft | 379 kts | 254° |
| 2026-05-07 22:44 | 46.48024 | -69.76560 | 31134 ft | 379 kts | 254° |
| 2026-05-07 22:45 | 46.46846 | -69.84013 | 31139 ft | 379 kts | 253° |
| 2026-05-07 22:45 | 46.45665 | -69.91461 | 31119 ft | 379 kts | 254° |
| 2026-05-07 22:46 | 46.44474 | -69.98927 | 31085 ft | 381 kts | 254° |
| 2026-05-07 22:46 | 46.43282 | -70.06374 | 31080 ft | 382 kts | 254° |
| 2026-05-07 22:47 | 46.42074 | -70.13879 | 31092 ft | 382 kts | 254° |
| 2026-05-07 22:47 | 46.40855 | -70.21374 | 31085 ft | 382 kts | 254° |
| 2026-05-07 22:48 | 46.39841 | -70.27602 | 31093 ft | 382 kts | 254° |
| 2026-05-07 22:48 | 46.38617 | -70.35132 | 31078 ft | 382 kts | 254° |
| 2026-05-07 22:49 | 46.37398 | -70.42593 | 31068 ft | 383 kts | 254° |
| 2026-05-07 22:49 | 46.36160 | -70.50115 | 31042 ft | 385 kts | 254° |
| 2026-05-07 22:50 | 46.34915 | -70.57666 | 31043 ft | 386 kts | 254° |
| 2026-05-07 22:50 | 46.33661 | -70.65225 | 31055 ft | 386 kts | 254° |
| 2026-05-07 22:51 | 46.32409 | -70.72728 | 31076 ft | 385 kts | 254° |
| 2026-05-07 22:51 | 46.31144 | -70.80283 | 31070 ft | 384 kts | 253° |
| 2026-05-07 22:52 | 46.29884 | -70.87794 | 31075 ft | 385 kts | 254° |
| 2026-05-07 22:52 | 46.28623 | -70.95274 | 31035 ft | 386 kts | 254° |
| 2026-05-07 22:53 | 46.27339 | -71.02828 | 31030 ft | 387 kts | 254° |
| 2026-05-07 22:53 | 46.26045 | -71.10393 | 31022 ft | 388 kts | 254° |
| 2026-05-07 22:54 | 46.24754 | -71.17971 | 31023 ft | 389 kts | 254° |
| 2026-05-07 22:54 | 46.23473 | -71.25588 | 31033 ft | 390 kts | 254° |
| 2026-05-07 22:55 | 46.22064 | -71.33119 | 31063 ft | 388 kts | 252° |
| 2026-05-07 22:55 | 46.20566 | -71.40632 | 31018 ft | 390 kts | 252° |
| 2026-05-07 22:56 | 46.19051 | -71.48167 | 31012 ft | 392 kts | 252° |
| 2026-05-07 22:56 | 46.17617 | -71.55756 | 31016 ft | 392 kts | 254° |
| 2026-05-07 22:57 | 46.16314 | -71.63377 | 31025 ft | 391 kts | 254° |
| 2026-05-07 22:57 | 46.15026 | -71.70951 | 31016 ft | 391 kts | 254° |
| 2026-05-07 22:58 | 46.13699 | -71.78553 | 31018 ft | 390 kts | 254° |
| 2026-05-07 22:58 | 46.12355 | -71.86135 | 31004 ft | 390 kts | 254° |
| 2026-05-07 22:59 | 46.11002 | -71.93706 | 30999 ft | 390 kts | 254° |
| 2026-05-07 22:59 | 46.09644 | -72.01279 | 30988 ft | 390 kts | 254° |
| 2026-05-07 23:00 | 46.08291 | -72.08847 | 30990 ft | 390 kts | 254° |
| 2026-05-07 23:00 | 46.06936 | -72.16413 | 30982 ft | 390 kts | 254° |
| 2026-05-07 23:01 | 46.05550 | -72.23976 | 30966 ft | 391 kts | 253° |
| 2026-05-07 23:01 | 46.04147 | -72.31554 | 30933 ft | 393 kts | 253° |
| 2026-05-07 23:02 | 46.02721 | -72.39118 | 30919 ft | 395 kts | 253° |
| 2026-05-07 23:02 | 46.01282 | -72.46762 | 30913 ft | 396 kts | 253° |
| 2026-05-07 23:03 | 45.99848 | -72.54416 | 30938 ft | 396 kts | 254° |
| 2026-05-07 23:03 | 45.98433 | -72.62046 | 30990 ft | 394 kts | 254° |
| 2026-05-07 23:04 | 45.97035 | -72.69662 | 31001 ft | 393 kts | 254° |
| 2026-05-07 23:04 | 45.95636 | -72.77242 | 31013 ft | 392 kts | 254° |
| 2026-05-07 23:05 | 45.94225 | -72.84821 | 30989 ft | 393 kts | 254° |
| 2026-05-07 23:05 | 45.92804 | -72.92401 | 30997 ft | 394 kts | 254° |
| 2026-05-07 23:06 | 45.91381 | -73.00001 | 30999 ft | 394 kts | 254° |
| 2026-05-07 23:06 | 45.89955 | -73.07604 | 31025 ft | 394 kts | 254° |
| 2026-05-07 23:07 | 45.88518 | -73.15199 | 31038 ft | 394 kts | 253° |
| 2026-05-07 23:07 | 45.87076 | -73.22777 | 31064 ft | 394 kts | 254° |
| 2026-05-07 23:08 | 45.85640 | -73.30314 | 31042 ft | 395 kts | 254° |
| 2026-05-07 23:08 | 45.84180 | -73.37927 | 31058 ft | 396 kts | 254° |
| 2026-05-07 23:09 | 45.82714 | -73.45544 | 31063 ft | 396 kts | 254° |
| 2026-05-07 23:09 | 45.81245 | -73.53179 | 31079 ft | 397 kts | 254° |
| 2026-05-07 23:10 | 45.79769 | -73.60808 | 31085 ft | 397 kts | 254° |
| 2026-05-07 23:10 | 45.78283 | -73.68448 | 31115 ft | 397 kts | 253° |
| 2026-05-07 23:11 | 45.76805 | -73.76021 | 31132 ft | 395 kts | 253° |
| 2026-05-07 23:11 | 45.75327 | -73.83597 | 31154 ft | 395 kts | 253° |
| 2026-05-07 23:12 | 45.73840 | -73.91155 | 31157 ft | 394 kts | 253° |
| 2026-05-07 23:12 | 45.72358 | -73.98662 | 31171 ft | 394 kts | 253° |
| 2026-05-07 23:13 | 45.70866 | -74.06200 | 31182 ft | 394 kts | 253° |